Pittsburg, NH

10:56 PM EDT on October 24, 2014 (GMT -0400)
APRSWXNET Pittsburg NH US | Change Station
CLOSE
Current Station
Personal Weather Station
Location: Pittsburg, NH
Elevation: 1833 ft
Nearby Weather Stations

Elev 1833 ft 45.11 °N, 71.29 °W | Updated 26 minutes ago

Mostly Cloudy
Mostly Cloudy
35 °F
Feels Like 35 °F
N
1
Wind Variable Wind from WNW
Gusts 3.0 mph

Today
High -- | Low -- °F
--% Chance of Precip.
Yesterday
High -- | Low -- °F
Precip. -- in
7:12 AM 5:45 PM
New Moon, 2% visible
Pressure 29.78 in
Visibility 10.0 miles
Clouds Mostly Cloudy 7000 ft
Overcast 9000 ft
Windchill 35 °F
Dew Point 34 °F
Humidity 96%
Rainfall 0.73 in
Snow Depth Not available.
UV 0 out of 12
Pollen .10 out of 12
Air Quality Not available.
Flu Activity Sporadic
METAR KBML 250252Z AUTO 00000KT 10SM BKN070 OVC090 05/04 A2975 RMK AO2 SLP084 T00500044 58002

More Conditions Fewer Conditions

Pressure 29.78 in
Visibility 10.0 miles
Clouds Mostly Cloudy 7000 ft
Overcast 9000 ft
Windchill 35 °F
Dew Point 34 °F
Humidity 96%
Rainfall 0.73 in
Snow Depth Not available.
UV 0 out of 12
Pollen .10 out of 12
Air Quality Not available.
Flu Activity Sporadic
METAR KBML 250252Z AUTO 00000KT 10SM BKN070 OVC090 05/04 A2975 RMK AO2 SLP084 T00500044 58002

More Conditions Fewer Conditions

10-Day Weather Forecast

Almanac

Astronomy

Oct. 24, 2014 Rise Set
Actual Time 7:12 AM EDT 5:45 PM EDT
Civil Twilight 6:42 AM EDT 6:15 PM EDT
Nautical Twilight 6:08 AM EDT 6:49 PM EDT
Astronomical Twilight 5:34 AM EDT 7:23 PM EDT
Moon 7:50 AM EDT (10/24) 6:21 PM EDT (10/24)
Length of Visible Light 11h 32m
Length of Day
10h 32m
Tomorrow will be 2m 56s shorter.
New Moon, 2% of the Moon is Illuminated
Today
New Moon
Oct 30
First Quarter
Nov 6
Full
Nov 14
Last Quarter
Nov 22
New

Today's Extremes

State Highs State Lows

Community

WunderPhotos

Upload Photos

1,764,760 photos uploaded!

Nearby

Air Quality

  Air Quality AQ Index Pollutant
Friday Good
PM2.5
Friday Good
OZONE
Saturday Good
PM2.5
Saturday Good
OZONE
Sunday Good
PM2.5
Sunday Good
OZONE
Monday Good
PM2.5
Monday Good
OZONE

Snow Depth

Station Depth Elevation
No new snow has been reported.

Earthquake Activity

City Distance Mag. Time & Date
No recent earthquake activity has been reported nearby.
Minimum magnitude displayed is 2.5.

Coastal Water Temperatures

Place Temperature
No Stations Reporting

Nearby Weather Stations